• Join FlightAware (Why Join?)
  • Login
  • US Flag 
07:33AM EDT


 

Airport Tracker/Info


-or-


 

Live Flight TrackerFlight Track Log ✈ EJA951 ✈ 20-May-2013 ✈ KSJC - KBUR

Flight Track Log - Related Links

Times and Time Zones

All times are in EDT time to prevent confusion due to time zone crossing. See the EJA951 flight status page for this flight to view local times or setup timezone preferences in your user account.

Time Position Orientation Groundspeed Altitude Reporting Facility
EDT Latitude Longitude Course Direction KTS MPH feet Rate Location/Type
01:41PM 37.4000 -121.9667 15° North 193 222 3,400  Level Northern Cal TRACON
01:42PM 37.4500 -121.9500 15° North 231 266 5,000 840 Climbing Northern Cal TRACON
01:43PM 37.4000 -121.8833 133° Southeast 241 277 5,100 2,100 Climbing Northern Cal TRACON
01:44PM 37.3667 -121.8167 122° Southeast 237 273 9,000 2,760 Climbing Northern Cal TRACON
01:45PM 37.3197 -121.7811 149° Southeast 260 299 10,300 1,980 Climbing Oakland Center
01:46PM 37.2558 -121.7092 138° Southeast 306 352 12,800 2,640 Climbing Oakland Center
01:47PM 37.1731 -121.6156 138° Southeast 330 380 15,800 2,400 Climbing Oakland Center
01:48PM 37.0975 -121.5331 139° Southeast 355 409 17,800 2,040 Climbing Oakland Center
01:50PM 36.9622 -121.3878 139° Southeast 373 429 21,700 2,160 Climbing Los Angeles Center
01:51PM 36.8597 -121.2761 139° Southeast 393 452 24,100 2,100 Climbing Los Angeles Center
01:52PM 36.7683 -121.1758 139° Southeast 417 480 26,100 1,260 Climbing Los Angeles Center
01:53PM 36.6497 -121.0469 139° Southeast 462 532 27,000 360 Climbing Oakland Center
01:54PM 36.5406 -120.9275 139° Southeast 512 589 27,000  Level Oakland Center
01:55PM 36.4247 -120.8011 139° Southeast 546 628 27,000  Level Oakland Center
01:56PM 36.3058 -120.6747 139° Southeast 564 649 27,000  Level Oakland Center
01:57PM 36.1908 -120.5519 139° Southeast 554 638 27,000  Level Oakland Center
01:58PM 36.0733 -120.4261 139° Southeast 563 648 27,000  Level Oakland Center
01:59PM 35.9333 -120.2808 140° Southeast 539 620 27,000  Level Oakland Center
02:00PM 35.8156 -120.1564 139° Southeast 550 633 27,000  Level Oakland Center
02:01PM 35.6967 -120.0311 139° Southeast 556 640 27,000  Level Oakland Center
02:02PM 35.5986 -119.9381 142° Southeast 557 641 27,000  Level Los Angeles Center
02:03PM 35.4708 -119.8269 145° Southeast 556 640 27,000  Level Los Angeles Center
02:04PM 35.3186 -119.6961 145° Southeast 554 638 27,000 -300 Level Los Angeles Center
02:05PM 35.1939 -119.5897 145° Southeast 546 628 26,400 -1,500 Descending Los Angeles Center
02:06PM 35.0725 -119.4853 145° Southeast 534 615 23,900 -2,460 Descending Los Angeles Center
02:07PM 34.9536 -119.3836 145° Southeast 524 603 21,400 -2,460 Descending Los Angeles Center
02:08PM 34.8397 -119.2869 145° Southeast 505 581 18,900 -2,220 Descending Los Angeles Center
02:10PM 34.7319 -119.1933 144° Southeast 483 556 16,400 -2,580 Descending Los Angeles Center
02:11PM 34.5858 -119.0750 146° Southeast 435 501 13,100 -2,520 Descending Los Angeles Center
02:12PM 34.4983 -119.0039 146° Southeast 373 429 11,200 -1,380 Descending Los Angeles Center
02:13PM 34.4244 -118.9356 143° Southeast 334 384 10,300 -1,260 Descending Los Angeles Center
02:14PM 34.3533 -118.8786 147° Southeast 308 354 8,600 -1,620 Descending Los Angeles Center
02:15PM 34.2831 -118.8325 152° Southeast 289 333 7,000 -1,260 Descending Los Angeles Center
02:16PM 34.2225 -118.7814 145° Southeast 266 306 6,000 -1,260 Descending Los Angeles Center
02:17PM 34.1961 -118.6903 109° East 245 282 4,400 -1,020 Descending Los Angeles Center
02:18PM 34.2022 -118.6122 85° East 236 272 3,900 -540 Descending Los Angeles Center
02:19PM 34.2003 -118.5436 92° East 219 252 3,300 -720 Descending Los Angeles Center
02:20PM 34.1994 -118.4722 91° East 213 245 2,400 -900 Descending Los Angeles Center
02:21PM 34.1986 -118.4100 91° East 202 232 1,500 -720 Descending Los Angeles Center
02:22PM 34.1989 -118.3547 90° East 182 209 1,000 -540 Descending Los Angeles Center
02:24PM 34.2000 -118.3500 North  Level FlightAware Approximate